createdAt,value
2022-08-22T00:02:53.437Z,99659.19
2022-08-22T00:06:24.332Z,99582.94
2022-08-22T00:09:41.219Z,99582.13
2022-08-22T00:12:50.584Z,99579.59
2022-08-22T00:15:52.369Z,99580.69
2022-08-22T00:19:14.417Z,99584.78
2022-08-22T00:22:20.847Z,99577.19
2022-08-22T00:25:35.144Z,99579.88
2022-08-22T00:29:00.302Z,99584.78
2022-08-22T00:32:02.120Z,99578.47
2022-08-22T00:35:03.909Z,99588.66
2022-08-22T00:38:15.271Z,99580.00
2022-08-22T00:41:24.463Z,99581.97
2022-08-22T00:44:29.410Z,99583.94
2022-08-22T00:47:37.369Z,99582.34
2022-08-22T00:50:43.909Z,99591.09
2022-08-22T00:54:06.767Z,99591.63
2022-08-22T00:57:23.786Z,99589.84
2022-08-22T01:00:27.154Z,99589.25
2022-08-22T01:03:49.675Z,99593.50
2022-08-22T01:07:24.055Z,99594.63
2022-08-22T01:10:51.051Z,99591.53
2022-08-22T01:13:55.931Z,99585.50
2022-08-22T01:17:00.834Z,99584.34
2022-08-22T01:20:21.321Z,99588.16
2022-08-22T01:23:41.727Z,99583.53
2022-08-22T01:26:46.646Z,99591.94
2022-08-22T01:29:51.232Z,99588.78
2022-08-22T01:33:12.086Z,99589.00
2022-08-22T01:36:16.665Z,99590.44
2022-08-22T01:39:27.608Z,99583.22
2022-08-22T01:42:48.016Z,99582.50
2022-08-22T01:45:52.514Z,99579.84
2022-08-22T01:48:57.342Z,99588.00
2022-08-22T01:52:08.309Z,99583.78
2022-08-22T01:55:10.110Z,99584.06
2022-08-22T01:58:19.731Z,99590.41
2022-08-22T02:01:24.442Z,99597.28
2022-08-22T02:04:38.232Z,99588.28
2022-08-22T02:07:49.114Z,99590.09
2022-08-22T02:10:56.876Z,99588.44
2022-08-22T02:14:14.076Z,99579.84
2022-08-22T02:17:15.967Z,99578.59
2022-08-22T02:20:17.901Z,99574.69
2022-08-22T02:23:30.657Z,99577.59
2022-08-22T02:26:38.639Z,99574.66
2022-08-22T02:29:42.634Z,99578.44
2022-08-22T02:32:46.358Z,99577.91
2022-08-22T02:36:00.049Z,99573.59
2022-08-22T02:39:07.555Z,99565.81
2022-08-22T02:42:12.459Z,99568.19
2022-08-22T02:45:33.379Z,99570.59
2022-08-22T02:48:35.633Z,99568.34
2022-08-22T02:51:56.091Z,99564.19
2022-08-22T02:55:03.618Z,99560.84
2022-08-22T02:58:12.042Z,99565.47
2022-08-22T03:01:17.952Z,99573.38
2022-08-22T03:04:22.897Z,99570.94
2022-08-22T03:07:27.304Z,99569.47
2022-08-22T03:10:35.696Z,99565.13
2022-08-22T03:13:46.734Z,99570.47
2022-08-22T03:16:55.827Z,99575.34
2022-08-22T03:20:04.418Z,99579.44
2022-08-22T03:23:25.413Z,99576.78
2022-08-22T03:26:30.319Z,99578.75
2022-08-22T03:29:40.569Z,99578.88
2022-08-22T03:32:56.077Z,99577.97
2022-08-22T03:36:16.342Z,99586.19
2022-08-22T03:39:19.024Z,99588.13
2022-08-22T03:42:25.392Z,99583.78
2022-08-22T03:45:30.642Z,99589.44
2022-08-22T03:48:55.796Z,99590.53
2022-08-22T03:52:00.388Z,99593.50
2022-08-22T03:55:02.166Z,99594.81
2022-08-22T03:58:22.299Z,99590.69
2022-08-22T04:01:36.146Z,99596.13
2022-08-22T04:04:53.086Z,99592.47
2022-08-22T04:07:54.983Z,99590.53
2022-08-22T04:11:03.710Z,99595.06
2022-08-22T04:14:24.366Z,99600.13
2022-08-22T04:17:29.227Z,99599.59
2022-08-22T04:20:50.362Z,99589.19
2022-08-22T04:23:57.439Z,99586.34
2022-08-22T04:27:22.548Z,99599.03
2022-08-22T04:30:36.435Z,99607.94
2022-08-22T04:33:45.369Z,99597.56
2022-08-22T04:36:50.113Z,99598.88
2022-08-22T04:40:12.253Z,99606.06
2022-08-22T04:43:20.467Z,99608.78
2022-08-22T04:46:32.123Z,99612.22
2022-08-22T04:49:40.656Z,99619.13
2022-08-22T04:52:48.530Z,99610.22
2022-08-22T04:56:06.773Z,99616.78
2022-08-22T04:59:11.407Z,99614.00
2022-08-22T05:02:13.680Z,99612.19
2022-08-22T05:05:25.734Z,99611.09
2022-08-22T05:08:30.506Z,99613.31
2022-08-22T05:11:32.464Z,99609.28
2022-08-22T05:14:38.923Z,99609.03
2022-08-22T05:17:41.176Z,99614.16
2022-08-22T05:20:44.767Z,99622.69
2022-08-22T05:23:55.163Z,99619.59
2022-08-22T05:26:57.353Z,99626.56
2022-08-22T05:30:04.380Z,99634.09
2022-08-22T05:33:18.553Z,99630.97
2022-08-22T05:36:31.117Z,99632.06
2022-08-22T05:39:32.998Z,99632.56
2022-08-22T05:42:36.737Z,99644.28
2022-08-22T05:45:38.989Z,99642.13
2022-08-22T05:51:55.854Z,99647.50
2022-08-22T05:54:59.270Z,99651.47
2022-08-22T05:58:10.821Z,99646.47
2022-08-22T06:01:27.765Z,99649.56
2022-08-22T06:04:53.886Z,99653.66
2022-08-22T06:08:23.503Z,99659.19
2022-08-22T06:11:33.678Z,99655.59
2022-08-22T06:14:42.244Z,99663.88
2022-08-22T06:17:45.789Z,99663.69
2022-08-22T06:20:48.568Z,99672.59
2022-08-22T06:23:53.224Z,99668.56
2022-08-22T06:26:57.312Z,99671.91
2022-08-22T06:30:00.781Z,99669.59
2022-08-22T06:33:06.988Z,99664.25
2022-08-22T06:36:34.019Z,99669.94
2022-08-22T06:39:37.764Z,99672.78
2022-08-22T06:42:41.218Z,99681.22
2022-08-22T06:45:43.225Z,99676.78
2022-08-22T06:48:45.263Z,99669.84
2022-08-22T06:51:49.226Z,99678.63
2022-08-22T06:54:52.925Z,99682.94
2022-08-22T06:57:59.141Z,99674.97
2022-08-22T07:01:24.892Z,99671.91
2022-08-22T07:04:27.494Z,99663.03
2022-08-22T07:07:29.462Z,99665.22
2022-08-22T07:10:31.438Z,99672.38
2022-08-22T07:13:33.783Z,99666.50
2022-08-22T07:16:43.418Z,99672.87
2022-08-22T07:19:59.508Z,99686.16
2022-08-22T07:23:02.949Z,99676.72
2022-08-22T07:26:11.163Z,99679.97
2022-08-22T07:29:17.309Z,99682.50
2022-08-22T07:32:20.258Z,99691.62
2022-08-22T07:35:27.193Z,99687.75
2022-08-22T07:38:42.875Z,99693.09
2022-08-22T07:41:55.865Z,99677.81
2022-08-22T07:45:07.961Z,99680.97
2022-08-22T07:48:25.793Z,99690.22
2022-08-22T07:51:32.090Z,99687.53
2022-08-22T07:54:41.417Z,99688.47
2022-08-22T07:57:47.544Z,99687.34
2022-08-22T08:00:49.947Z,99691.53
2022-08-22T08:03:56.242Z,99698.34
2022-08-22T08:06:58.938Z,99697.13
2022-08-22T08:10:04.348Z,99694.00
2022-08-22T08:13:13.000Z,99698.75
2022-08-22T08:16:20.576Z,99694.41
2022-08-22T08:19:22.616Z,99694.84
2022-08-22T08:22:25.193Z,99688.31
2022-08-22T08:25:27.877Z,99691.56
2022-08-22T08:28:36.304Z,99694.59
2022-08-22T08:31:43.173Z,99692.91
2022-08-22T08:34:47.138Z,99695.44
2022-08-22T08:37:51.270Z,99695.94
2022-08-22T08:40:53.111Z,99698.78
2022-08-22T08:43:55.765Z,99695.34
2022-08-22T08:47:16.343Z,99689.56
2022-08-22T08:50:24.281Z,99693.78
2022-08-22T08:53:45.319Z,99697.47
2022-08-22T08:56:54.451Z,99704.53
2022-08-22T09:00:14.828Z,99690.91
2022-08-22T09:03:30.686Z,99697.13
2022-08-22T09:06:33.223Z,99707.75
2022-08-22T09:09:35.131Z,99698.38
2022-08-22T09:12:36.989Z,99692.78
2022-08-22T09:16:09.223Z,99686.75
2022-08-22T09:19:30.865Z,99685.84
2022-08-22T09:23:02.065Z,99672.53
2022-08-22T09:26:20.886Z,99680.72
2022-08-22T09:29:32.830Z,99682.72
2022-08-22T09:32:41.782Z,99678.25
2022-08-22T09:35:46.661Z,99682.06
2022-08-22T09:38:55.855Z,99680.44
2022-08-22T09:42:27.289Z,99683.94
2022-08-22T09:45:32.158Z,99684.75
2022-08-22T09:48:40.068Z,99681.16
2022-08-22T09:51:54.470Z,99692.03
2022-08-22T09:55:16.080Z,99691.50
2022-08-22T09:58:41.807Z,99691.62
2022-08-22T10:01:49.143Z,99695.31
2022-08-22T10:04:54.653Z,99696.72
2022-08-22T10:08:14.095Z,99689.75
2022-08-22T10:11:51.918Z,99691.84
2022-08-22T10:14:53.834Z,99704.31
2022-08-22T10:18:03.877Z,99707.44
2022-08-22T10:21:05.722Z,99703.13
2022-08-22T10:24:25.497Z,99705.00
2022-08-22T10:27:39.988Z,99705.78
2022-08-22T10:31:01.517Z,99712.84
2022-08-22T10:34:14.898Z,99706.50
2022-08-22T10:37:23.718Z,99708.62
2022-08-22T10:40:26.111Z,99709.16
2022-08-22T10:43:31.178Z,99706.53
2022-08-22T10:46:37.842Z,99704.69
2022-08-22T10:49:44.780Z,99703.87
2022-08-22T10:52:48.538Z,99698.78
2022-08-22T10:55:50.879Z,99702.41
2022-08-22T10:59:06.354Z,99693.41
2022-08-22T11:02:17.791Z,99691.84
2022-08-22T11:05:24.120Z,99689.75
2022-08-22T11:08:34.992Z,99688.72
2022-08-22T11:12:06.377Z,99687.47
2022-08-22T11:15:24.195Z,99682.44
2022-08-22T11:18:42.982Z,99687.00
2022-08-22T11:21:59.711Z,99691.59
2022-08-22T11:25:29.289Z,99684.78
2022-08-22T11:28:53.345Z,99675.69
2022-08-22T11:32:05.949Z,99688.06
2022-08-22T11:35:18.901Z,99690.41
2022-08-22T11:38:39.566Z,99682.53
2022-08-22T11:41:43.094Z,99678.38
2022-08-22T11:44:54.202Z,99670.41
2022-08-22T11:47:59.729Z,99664.41
2022-08-22T11:51:13.508Z,99668.28
2022-08-22T11:54:20.571Z,99647.19
2022-08-22T11:57:37.289Z,99662.19
2022-08-22T12:00:56.701Z,99661.78
2022-08-22T12:04:00.981Z,99661.06
2022-08-22T12:07:08.190Z,99663.97
2022-08-22T12:10:14.977Z,99665.97
2022-08-22T12:13:20.730Z,99658.06
2022-08-22T12:16:37.161Z,99659.94
2022-08-22T12:20:16.267Z,99668.31
2022-08-22T12:23:48.978Z,99670.47
2022-08-22T12:27:11.731Z,99663.00
2022-08-22T12:30:14.178Z,99668.09
2022-08-22T12:33:34.914Z,99656.63
2022-08-22T12:36:36.896Z,99654.25
2022-08-22T12:39:40.320Z,99651.00
2022-08-22T12:43:02.253Z,99657.16
2022-08-22T12:46:16.567Z,99645.44
2022-08-22T12:49:18.936Z,99639.84
2022-08-22T12:52:31.214Z,99647.94
2022-08-22T12:55:35.203Z,99631.53
2022-08-22T12:58:42.837Z,99645.41
2022-08-22T13:01:46.674Z,99641.56
2022-08-22T13:04:50.847Z,99641.91
2022-08-22T13:07:54.610Z,99637.88
2022-08-22T13:10:58.401Z,99638.47
2022-08-22T13:14:00.801Z,99642.69
2022-08-22T13:17:10.277Z,99648.28
2022-08-22T13:20:31.711Z,99646.94
2022-08-22T13:23:39.592Z,99652.91
2022-08-22T13:26:49.130Z,99656.25
2022-08-22T13:29:53.379Z,99650.63
2022-08-22T13:32:58.321Z,99661.66
2022-08-22T13:36:06.713Z,99666.75
2022-08-22T13:39:12.918Z,99659.75
2022-08-22T13:42:27.731Z,99665.91
2022-08-22T13:45:33.771Z,99676.06
2022-08-22T13:48:47.055Z,99682.28
2022-08-22T13:51:53.278Z,99685.47
2022-08-22T13:55:14.474Z,99684.88
2022-08-22T13:58:18.179Z,99683.94
2022-08-22T14:01:32.369Z,99680.59
2022-08-22T14:04:36.555Z,99684.91
2022-08-22T14:07:45.790Z,99682.34
2022-08-22T14:10:55.167Z,99667.38
2022-08-22T14:14:01.195Z,99671.75
2022-08-22T14:17:03.229Z,99674.09
2022-08-22T14:20:12.453Z,99671.75
2022-08-22T14:23:17.425Z,99671.78
2022-08-22T14:26:33.037Z,99664.59
2022-08-22T14:29:40.474Z,99664.16
2022-08-22T14:32:45.648Z,99673.75
2022-08-22T14:35:52.808Z,99663.81
2022-08-22T14:38:57.276Z,99662.31
2022-08-22T14:42:05.257Z,99655.78
2022-08-22T14:45:15.052Z,99659.78
2022-08-22T14:48:30.508Z,99665.75
2022-08-22T14:51:33.762Z,99680.59
2022-08-22T14:54:35.915Z,99678.88
2022-08-22T14:57:41.648Z,99666.37
2022-08-22T15:00:45.001Z,99672.91
2022-08-22T15:03:54.682Z,99669.03
2022-08-22T15:06:58.435Z,99671.13
2022-08-22T15:10:03.589Z,99676.97
2022-08-22T15:13:08.405Z,99659.50
2022-08-22T15:16:16.640Z,99664.19
2022-08-22T15:19:25.797Z,99670.59
2022-08-22T15:22:29.482Z,99691.09
2022-08-22T15:25:35.862Z,99697.13
2022-08-22T15:28:52.655Z,99696.13
2022-08-22T15:31:56.340Z,99690.72
2022-08-22T15:35:06.042Z,99691.09
2022-08-22T15:38:11.256Z,99703.69
2022-08-22T15:41:31.544Z,99699.56
2022-08-22T15:44:40.209Z,99701.38
2022-08-22T15:47:50.284Z,99704.53
2022-08-22T15:50:56.146Z,99704.41
2022-08-22T15:54:04.066Z,99719.37
2022-08-22T15:57:34.986Z,99730.72
2022-08-22T16:00:43.242Z,99734.56
2022-08-22T16:03:56.563Z,99730.44
2022-08-22T16:07:00.436Z,99725.47
2022-08-22T16:10:04.452Z,99725.28
2022-08-22T16:13:25.242Z,99720.66
2022-08-22T16:16:27.422Z,99726.28
2022-08-22T16:19:31.150Z,99725.34
2022-08-22T16:22:51.871Z,99716.25
2022-08-22T16:25:53.882Z,99718.63
2022-08-22T16:29:14.995Z,99720.16
2022-08-22T16:32:23.304Z,99720.94
2022-08-22T16:35:44.104Z,99723.06
2022-08-22T16:38:49.894Z,99724.47
2022-08-22T16:41:56.990Z,99722.97
2022-08-22T16:45:18.961Z,99721.34
2022-08-22T16:48:25.923Z,99728.69
2022-08-22T16:51:27.787Z,99725.91
2022-08-22T16:54:43.207Z,99727.72
2022-08-22T16:58:05.762Z,99733.22
2022-08-22T17:01:11.837Z,99723.34
2022-08-22T17:04:19.515Z,99723.94
2022-08-22T17:07:21.383Z,99731.19
2022-08-22T17:10:26.256Z,99725.34
2022-08-22T17:13:28.093Z,99742.53
2022-08-22T17:16:52.048Z,99742.41
2022-08-22T17:20:06.147Z,99751.91
2022-08-22T17:23:37.539Z,99762.75
2022-08-22T17:26:39.408Z,99757.50
2022-08-22T17:29:44.270Z,99772.81
2022-08-22T17:33:09.893Z,99765.53
2022-08-22T17:36:26.506Z,99781.94
2022-08-22T17:39:47.223Z,99781.09
2022-08-22T17:42:55.173Z,99776.84
2022-08-22T17:46:03.185Z,99776.19
2022-08-22T17:49:11.146Z,99786.28
2022-08-22T17:52:30.568Z,99773.94
2022-08-22T17:55:34.064Z,99781.63
2022-08-22T17:58:43.757Z,99786.59
2022-08-22T18:01:50.379Z,99784.62
2022-08-22T18:04:59.043Z,99779.47
2022-08-22T18:08:37.617Z,99788.69
2022-08-22T18:11:40.267Z,99781.84
2022-08-22T18:14:45.185Z,99783.34
2022-08-22T18:17:52.718Z,99786.34
2022-08-22T18:21:02.480Z,99797.31
2022-08-22T18:24:10.484Z,99791.25
2022-08-22T18:27:34.687Z,99793.41
2022-08-22T18:30:48.338Z,99789.63
2022-08-22T18:33:52.105Z,99809.34
2022-08-22T18:37:01.185Z,99798.88
2022-08-22T18:40:05.198Z,99791.47
2022-08-22T18:43:13.287Z,99796.13
2022-08-22T18:46:51.660Z,99791.31
2022-08-22T18:49:55.043Z,99791.75
2022-08-22T18:52:57.798Z,99798.91
2022-08-22T18:56:01.495Z,99812.97
2022-08-22T18:59:21.986Z,99803.69
2022-08-22T19:02:35.952Z,99809.56
2022-08-22T19:05:40.867Z,99815.25
2022-08-22T19:09:01.427Z,99816.22
2022-08-22T19:12:07.444Z,99822.41
2022-08-22T19:15:25.059Z,99823.81
2022-08-22T19:18:30.700Z,99825.31
2022-08-22T19:21:52.077Z,99831.50
2022-08-22T19:25:09.299Z,99836.97
2022-08-22T19:28:21.166Z,99844.25
2022-08-22T19:31:23.342Z,99838.44
2022-08-22T19:34:25.134Z,99841.44
2022-08-22T19:37:32.457Z,99840.72
2022-08-22T19:40:44.951Z,99840.50
2022-08-22T19:43:46.768Z,99842.59
2022-08-22T19:47:00.914Z,99839.31
2022-08-22T19:50:18.079Z,99838.81
2022-08-22T19:53:34.741Z,99840.31
2022-08-22T19:56:50.538Z,99843.09
2022-08-22T20:00:00.129Z,99841.87
2022-08-22T20:03:10.668Z,99838.72
2022-08-22T20:06:40.719Z,99843.81
2022-08-22T20:09:51.207Z,99846.31
2022-08-22T20:13:02.067Z,99843.72
2022-08-22T20:16:07.589Z,99846.47
2022-08-22T20:19:09.875Z,99846.91
2022-08-22T20:22:38.890Z,99843.38
2022-08-22T20:25:44.235Z,99835.56
2022-08-22T20:28:47.439Z,99829.28
2022-08-22T20:31:49.864Z,99843.16
2022-08-22T20:34:54.503Z,99832.94
2022-08-22T20:38:08.673Z,99836.50
2022-08-22T20:41:24.186Z,99837.34
2022-08-22T20:44:30.893Z,99836.62
2022-08-22T20:47:40.713Z,99835.34
2022-08-22T20:50:43.236Z,99833.66
2022-08-22T20:53:55.892Z,99822.53
2022-08-22T20:56:57.715Z,99825.03
2022-08-22T21:00:09.429Z,99831.81
2022-08-22T21:03:29.605Z,99822.84
2022-08-22T21:06:34.910Z,99819.19
2022-08-22T21:09:55.518Z,99826.03
2022-08-22T21:13:01.104Z,99824.94
2022-08-22T21:16:13.770Z,99816.88
2022-08-22T21:19:25.879Z,99820.16
2022-08-22T21:22:28.952Z,99820.13
2022-08-22T21:25:30.954Z,99822.09
2022-08-22T21:28:37.221Z,99822.53
2022-08-22T21:31:46.516Z,99822.03
2022-08-22T21:34:48.477Z,99818.75
2022-08-22T21:37:50.379Z,99822.84
2022-08-22T21:40:52.257Z,99824.53
2022-08-22T21:43:54.237Z,99829.19
2022-08-22T21:46:56.468Z,99823.69
2022-08-22T21:50:07.674Z,99816.34
2022-08-22T21:53:12.064Z,99821.41
2022-08-22T21:56:16.686Z,99819.31
2022-08-22T21:59:25.940Z,99824.72
2022-08-22T22:02:47.724Z,99822.84
2022-08-22T22:05:51.479Z,99829.72
2022-08-22T22:08:53.340Z,99828.03
2022-08-22T22:11:55.220Z,99840.16
2022-08-22T22:14:57.049Z,99845.50
2022-08-22T22:17:59.004Z,99846.59
2022-08-22T22:21:02.551Z,99846.97
2022-08-22T22:24:04.381Z,99861.25
2022-08-22T22:27:06.248Z,99858.44
2022-08-22T22:30:08.296Z,99860.91
2022-08-22T22:33:10.443Z,99856.16
2022-08-22T22:36:15.014Z,99872.28
2022-08-22T22:39:16.846Z,99872.47
2022-08-22T22:42:18.764Z,99872.81
2022-08-22T22:45:20.894Z,99870.87
2022-08-22T22:48:24.471Z,99863.19
2022-08-22T22:51:26.679Z,99860.06
2022-08-22T22:54:28.507Z,99867.00
2022-08-22T22:57:31.733Z,99875.06
2022-08-22T23:00:43.403Z,99871.63
2022-08-22T23:03:45.449Z,99874.47
2022-08-22T23:06:47.901Z,99863.47
2022-08-22T23:09:51.192Z,99876.69
2022-08-22T23:12:55.422Z,99880.09
2022-08-22T23:15:57.242Z,99882.31
2022-08-22T23:18:59.053Z,99875.94
2022-08-22T23:22:00.962Z,99875.16
2022-08-22T23:25:02.968Z,99879.53
2022-08-22T23:28:04.870Z,99882.78
2022-08-22T23:31:10.755Z,99886.72
2022-08-22T23:34:13.458Z,99890.78
2022-08-22T23:37:16.965Z,99880.38
2022-08-22T23:40:18.828Z,99878.81
2022-08-22T23:43:20.785Z,99874.50
2022-08-22T23:46:23.365Z,99878.56
2022-08-22T23:49:25.603Z,99872.75
2022-08-22T23:52:27.464Z,99874.34
2022-08-22T23:55:29.671Z,99870.09
2022-08-22T23:58:33.537Z,99865.94
